sensor_id;sensor_type;location;lat;lon;timestamp;P1;durP1;ratioP1;P2;durP2;ratioP2
7669;SDS011;3877;42.562;27.636;2023-07-13T00:00:41;19.73;;;12.25;;
7669;SDS011;3877;42.562;27.636;2023-07-13T00:03:08;14.02;;;11.70;;
7669;SDS011;3877;42.562;27.636;2023-07-13T00:05:38;21.25;;;12.38;;
7669;SDS011;3877;42.562;27.636;2023-07-13T00:08:08;16.38;;;11.80;;
7669;SDS011;3877;42.562;27.636;2023-07-13T00:10:38;17.63;;;12.25;;
7669;SDS011;3877;42.562;27.636;2023-07-13T00:13:07;20.42;;;12.77;;
7669;SDS011;3877;42.562;27.636;2023-07-13T00:15:36;22.70;;;12.70;;
7669;SDS011;3877;42.562;27.636;2023-07-13T00:18:04;20.75;;;12.45;;
7669;SDS011;3877;42.562;27.636;2023-07-13T00:20:32;16.80;;;13.18;;
7669;SDS011;3877;42.562;27.636;2023-07-13T00:22:59;22.75;;;12.65;;
7669;SDS011;3877;42.562;27.636;2023-07-13T00:25:29;18.88;;;12.95;;
7669;SDS011;3877;42.562;27.636;2023-07-13T00:27:56;19.88;;;13.02;;
7669;SDS011;3877;42.562;27.636;2023-07-13T00:30:23;16.88;;;13.48;;
7669;SDS011;3877;42.562;27.636;2023-07-13T00:32:51;24.52;;;13.50;;
7669;SDS011;3877;42.562;27.636;2023-07-13T00:35:18;22.98;;;14.02;;
7669;SDS011;3877;42.562;27.636;2023-07-13T00:37:45;27.23;;;14.50;;
7669;SDS011;3877;42.562;27.636;2023-07-13T00:40:13;21.30;;;14.88;;
7669;SDS011;3877;42.562;27.636;2023-07-13T00:42:44;27.17;;;15.18;;
7669;SDS011;3877;42.562;27.636;2023-07-13T00:48:16;19.50;;;16.08;;
7669;SDS011;3877;42.562;27.636;2023-07-13T00:50:48;19.73;;;15.90;;
7669;SDS011;3877;42.562;27.636;2023-07-13T00:53:19;24.83;;;16.75;;
7669;SDS011;3877;42.562;27.636;2023-07-13T00:55:47;22.42;;;16.42;;
7669;SDS011;3877;42.562;27.636;2023-07-13T00:58:18;24.77;;;16.58;;
7669;SDS011;3877;42.562;27.636;2023-07-13T01:00:46;22.33;;;16.38;;
7669;SDS011;3877;42.562;27.636;2023-07-13T01:03:16;20.27;;;16.65;;
7669;SDS011;3877;42.562;27.636;2023-07-13T01:05:43;27.48;;;16.33;;
7669;SDS011;3877;42.562;27.636;2023-07-13T01:08:13;24.77;;;16.80;;
7669;SDS011;3877;42.562;27.636;2023-07-13T01:10:41;20.05;;;15.60;;
7669;SDS011;3877;42.562;27.636;2023-07-13T01:13:18;18.48;;;15.80;;
7669;SDS011;3877;42.562;27.636;2023-07-13T01:15:46;24.58;;;16.77;;
7669;SDS011;3877;42.562;27.636;2023-07-13T01:18:17;29.40;;;16.80;;
7669;SDS011;3877;42.562;27.636;2023-07-13T01:20:51;24.60;;;17.80;;
7669;SDS011;3877;42.562;27.636;2023-07-13T01:23:19;21.02;;;17.17;;
7669;SDS011;3877;42.562;27.636;2023-07-13T01:25:47;23.55;;;18.55;;
7669;SDS011;3877;42.562;27.636;2023-07-13T01:28:14;20.88;;;18.52;;
7669;SDS011;3877;42.562;27.636;2023-07-13T01:30:42;19.85;;;17.75;;
7669;SDS011;3877;42.562;27.636;2023-07-13T01:33:11;24.17;;;18.17;;
7669;SDS011;3877;42.562;27.636;2023-07-13T01:35:39;22.63;;;17.60;;
7669;SDS011;3877;42.562;27.636;2023-07-13T01:38:08;20.05;;;17.75;;
7669;SDS011;3877;42.562;27.636;2023-07-13T01:40:36;26.80;;;19.30;;
7669;SDS011;3877;42.562;27.636;2023-07-13T01:43:05;22.35;;;18.92;;
7669;SDS011;3877;42.562;27.636;2023-07-13T01:45:32;25.70;;;18.33;;
7669;SDS011;3877;42.562;27.636;2023-07-13T01:47:59;21.48;;;19.02;;
7669;SDS011;3877;42.562;27.636;2023-07-13T01:50:27;24.10;;;18.52;;
7669;SDS011;3877;42.562;27.636;2023-07-13T01:52:54;19.63;;;17.58;;
7669;SDS011;3877;42.562;27.636;2023-07-13T01:55:23;19.42;;;17.42;;
7669;SDS011;3877;42.562;27.636;2023-07-13T01:57:50;18.90;;;16.95;;
7669;SDS011;3877;42.562;27.636;2023-07-13T02:00:18;22.10;;;16.85;;
7669;SDS011;3877;42.562;27.636;2023-07-13T02:02:45;21.33;;;18.05;;
7669;SDS011;3877;42.562;27.636;2023-07-13T02:05:12;21.17;;;16.35;;
7669;SDS011;3877;42.562;27.636;2023-07-13T02:07:40;19.02;;;16.10;;
7669;SDS011;3877;42.562;27.636;2023-07-13T02:10:08;18.73;;;15.57;;
7669;SDS011;3877;42.562;27.636;2023-07-13T02:12:38;21.40;;;15.35;;
7669;SDS011;3877;42.562;27.636;2023-07-13T02:15:09;17.35;;;15.00;;
7669;SDS011;3877;42.562;27.636;2023-07-13T02:17:37;18.35;;;15.18;;
7669;SDS011;3877;42.562;27.636;2023-07-13T02:20:05;16.58;;;14.88;;
7669;SDS011;3877;42.562;27.636;2023-07-13T02:22:33;15.82;;;14.15;;
7669;SDS011;3877;42.562;27.636;2023-07-13T02:25:00;17.10;;;13.70;;
7669;SDS011;3877;42.562;27.636;2023-07-13T02:27:28;16.83;;;14.60;;
7669;SDS011;3877;42.562;27.636;2023-07-13T02:29:56;16.88;;;15.18;;
7669;SDS011;3877;42.562;27.636;2023-07-13T02:32:24;17.65;;;15.75;;
7669;SDS011;3877;42.562;27.636;2023-07-13T02:34:52;18.33;;;15.50;;
7669;SDS011;3877;42.562;27.636;2023-07-13T02:37:19;19.83;;;14.52;;
7669;SDS011;3877;42.562;27.636;2023-07-13T02:39:46;17.92;;;15.57;;
7669;SDS011;3877;42.562;27.636;2023-07-13T02:42:14;19.60;;;15.25;;
7669;SDS011;3877;42.562;27.636;2023-07-13T02:44:41;19.00;;;15.48;;
7669;SDS011;3877;42.562;27.636;2023-07-13T02:47:10;19.02;;;15.55;;
7669;SDS011;3877;42.562;27.636;2023-07-13T02:49:38;18.98;;;15.32;;
7669;SDS011;3877;42.562;27.636;2023-07-13T02:52:05;20.45;;;15.68;;
7669;SDS011;3877;42.562;27.636;2023-07-13T02:54:33;20.08;;;16.02;;
7669;SDS011;3877;42.562;27.636;2023-07-13T02:57:00;23.17;;;15.65;;
7669;SDS011;3877;42.562;27.636;2023-07-13T02:59:27;27.95;;;19.48;;
7669;SDS011;3877;42.562;27.636;2023-07-13T03:01:54;28.52;;;20.95;;
7669;SDS011;3877;42.562;27.636;2023-07-13T03:04:23;34.47;;;23.05;;
7669;SDS011;3877;42.562;27.636;2023-07-13T03:06:50;32.95;;;23.52;;
7669;SDS011;3877;42.562;27.636;2023-07-13T03:09:17;34.38;;;24.92;;
7669;SDS011;3877;42.562;27.636;2023-07-13T03:11:44;35.15;;;25.80;;
7669;SDS011;3877;42.562;27.636;2023-07-13T03:14:12;33.63;;;25.05;;
7669;SDS011;3877;42.562;27.636;2023-07-13T03:16:39;39.72;;;26.33;;
7669;SDS011;3877;42.562;27.636;2023-07-13T03:19:07;38.53;;;28.23;;
7669;SDS011;3877;42.562;27.636;2023-07-13T03:21:35;43.70;;;27.83;;
7669;SDS011;3877;42.562;27.636;2023-07-13T03:24:03;41.40;;;28.52;;
7669;SDS011;3877;42.562;27.636;2023-07-13T03:26:30;48.38;;;28.33;;
7669;SDS011;3877;42.562;27.636;2023-07-13T03:28:58;37.67;;;28.52;;
7669;SDS011;3877;42.562;27.636;2023-07-13T03:31:26;42.05;;;28.63;;
7669;SDS011;3877;42.562;27.636;2023-07-13T03:33:56;51.85;;;28.80;;
7669;SDS011;3877;42.562;27.636;2023-07-13T03:36:24;42.25;;;29.75;;
7669;SDS011;3877;42.562;27.636;2023-07-13T03:38:54;41.55;;;28.70;;
7669;SDS011;3877;42.562;27.636;2023-07-13T03:41:24;56.30;;;30.40;;
7669;SDS011;3877;42.562;27.636;2023-07-13T03:43:51;49.83;;;31.25;;
7669;SDS011;3877;42.562;27.636;2023-07-13T03:46:19;40.15;;;30.52;;
7669;SDS011;3877;42.562;27.636;2023-07-13T03:48:47;42.65;;;28.95;;
7669;SDS011;3877;42.562;27.636;2023-07-13T03:51:15;41.40;;;27.52;;
7669;SDS011;3877;42.562;27.636;2023-07-13T03:53:44;45.50;;;27.70;;
7669;SDS011;3877;42.562;27.636;2023-07-13T03:56:14;38.00;;;24.17;;
7669;SDS011;3877;42.562;27.636;2023-07-13T03:58:42;31.35;;;23.75;;
7669;SDS011;3877;42.562;27.636;2023-07-13T04:01:11;28.65;;;20.45;;
7669;SDS011;3877;42.562;27.636;2023-07-13T04:03:40;31.50;;;20.73;;
7669;SDS011;3877;42.562;27.636;2023-07-13T04:06:07;32.42;;;20.30;;
7669;SDS011;3877;42.562;27.636;2023-07-13T04:08:40;29.20;;;19.17;;
7669;SDS011;3877;42.562;27.636;2023-07-13T04:11:07;27.15;;;18.50;;
7669;SDS011;3877;42.562;27.636;2023-07-13T04:13:36;25.55;;;19.08;;
7669;SDS011;3877;42.562;27.636;2023-07-13T04:16:04;29.33;;;19.60;;
7669;SDS011;3877;42.562;27.636;2023-07-13T04:18:31;24.25;;;18.95;;
7669;SDS011;3877;42.562;27.636;2023-07-13T04:20:58;27.45;;;18.95;;
7669;SDS011;3877;42.562;27.636;2023-07-13T04:23:25;27.38;;;19.08;;
7669;SDS011;3877;42.562;27.636;2023-07-13T04:25:53;34.67;;;18.50;;
7669;SDS011;3877;42.562;27.636;2023-07-13T04:28:21;23.92;;;18.25;;
7669;SDS011;3877;42.562;27.636;2023-07-13T04:30:50;24.83;;;17.20;;
7669;SDS011;3877;42.562;27.636;2023-07-13T04:33:18;21.50;;;16.35;;
7669;SDS011;3877;42.562;27.636;2023-07-13T04:35:47;22.17;;;16.23;;
7669;SDS011;3877;42.562;27.636;2023-07-13T04:38:15;18.38;;;14.45;;
7669;SDS011;3877;42.562;27.636;2023-07-13T04:40:42;18.95;;;14.13;;
7669;SDS011;3877;42.562;27.636;2023-07-13T04:43:11;19.92;;;14.18;;
7669;SDS011;3877;42.562;27.636;2023-07-13T04:45:38;17.25;;;13.73;;
7669;SDS011;3877;42.562;27.636;2023-07-13T04:48:07;24.10;;;14.93;;
7669;SDS011;3877;42.562;27.636;2023-07-13T04:50:35;19.90;;;14.10;;
7669;SDS011;3877;42.562;27.636;2023-07-13T04:53:03;18.40;;;14.35;;
7669;SDS011;3877;42.562;27.636;2023-07-13T04:55:30;16.83;;;13.93;;
7669;SDS011;3877;42.562;27.636;2023-07-13T04:57:58;19.50;;;13.18;;
7669;SDS011;3877;42.562;27.636;2023-07-13T05:00:25;16.80;;;13.30;;
7669;SDS011;3877;42.562;27.636;2023-07-13T05:02:54;21.42;;;15.45;;
7669;SDS011;3877;42.562;27.636;2023-07-13T05:05:24;22.67;;;15.65;;
7669;SDS011;3877;42.562;27.636;2023-07-13T05:07:52;15.40;;;13.38;;
7669;SDS011;3877;42.562;27.636;2023-07-13T05:10:20;13.38;;;11.55;;
7669;SDS011;3877;42.562;27.636;2023-07-13T05:12:48;12.93;;;11.13;;
7669;SDS011;3877;42.562;27.636;2023-07-13T05:15:16;16.25;;;12.50;;
7669;SDS011;3877;42.562;27.636;2023-07-13T05:17:46;19.67;;;14.02;;
7669;SDS011;3877;42.562;27.636;2023-07-13T05:20:13;17.65;;;14.05;;
7669;SDS011;3877;42.562;27.636;2023-07-13T05:22:42;25.38;;;15.13;;
7669;SDS011;3877;42.562;27.636;2023-07-13T05:25:12;19.33;;;13.88;;
7669;SDS011;3877;42.562;27.636;2023-07-13T05:27:40;16.58;;;11.65;;
7669;SDS011;3877;42.562;27.636;2023-07-13T05:30:07;12.75;;;10.35;;
7669;SDS011;3877;42.562;27.636;2023-07-13T05:32:37;12.30;;;9.63;;
7669;SDS011;3877;42.562;27.636;2023-07-13T05:35:04;12.85;;;10.23;;
7669;SDS011;3877;42.562;27.636;2023-07-13T05:37:32;15.60;;;11.00;;
7669;SDS011;3877;42.562;27.636;2023-07-13T05:40:01;15.65;;;10.68;;
7669;SDS011;3877;42.562;27.636;2023-07-13T05:42:29;12.40;;;9.63;;
7669;SDS011;3877;42.562;27.636;2023-07-13T05:44:57;15.02;;;10.32;;
7669;SDS011;3877;42.562;27.636;2023-07-13T05:47:24;16.05;;;9.80;;
7669;SDS011;3877;42.562;27.636;2023-07-13T05:49:52;18.65;;;11.32;;
7669;SDS011;3877;42.562;27.636;2023-07-13T05:52:19;12.68;;;10.15;;
7669;SDS011;3877;42.562;27.636;2023-07-13T05:54:46;12.98;;;10.68;;
7669;SDS011;3877;42.562;27.636;2023-07-13T05:57:15;14.95;;;11.07;;
7669;SDS011;3877;42.562;27.636;2023-07-13T05:59:42;19.75;;;11.15;;
7669;SDS011;3877;42.562;27.636;2023-07-13T06:02:09;16.17;;;11.30;;
7669;SDS011;3877;42.562;27.636;2023-07-13T06:04:37;17.52;;;11.77;;
7669;SDS011;3877;42.562;27.636;2023-07-13T06:07:04;15.32;;;11.13;;
7669;SDS011;3877;42.562;27.636;2023-07-13T06:09:31;18.25;;;11.63;;
7669;SDS011;3877;42.562;27.636;2023-07-13T06:11:59;18.05;;;11.50;;
7669;SDS011;3877;42.562;27.636;2023-07-13T06:14:27;14.93;;;12.38;;
7669;SDS011;3877;42.562;27.636;2023-07-13T06:16:55;17.20;;;10.55;;
7669;SDS011;3877;42.562;27.636;2023-07-13T06:19:22;16.60;;;10.98;;
7669;SDS011;3877;42.562;27.636;2023-07-13T06:21:49;14.88;;;10.13;;
7669;SDS011;3877;42.562;27.636;2023-07-13T06:24:16;16.10;;;11.25;;
7669;SDS011;3877;42.562;27.636;2023-07-13T06:26:44;18.65;;;14.88;;
7669;SDS011;3877;42.562;27.636;2023-07-13T06:29:11;16.70;;;12.30;;
7669;SDS011;3877;42.562;27.636;2023-07-13T06:31:39;16.17;;;12.02;;
7669;SDS011;3877;42.562;27.636;2023-07-13T06:34:06;14.40;;;11.57;;
7669;SDS011;3877;42.562;27.636;2023-07-13T06:36:34;18.40;;;12.23;;
7669;SDS011;3877;42.562;27.636;2023-07-13T06:39:01;16.45;;;11.23;;
7669;SDS011;3877;42.562;27.636;2023-07-13T06:41:29;14.00;;;11.05;;
7669;SDS011;3877;42.562;27.636;2023-07-13T06:43:56;13.65;;;12.20;;
7669;SDS011;3877;42.562;27.636;2023-07-13T06:46:23;16.58;;;12.23;;
7669;SDS011;3877;42.562;27.636;2023-07-13T06:48:52;18.08;;;12.13;;
7669;SDS011;3877;42.562;27.636;2023-07-13T06:51:19;22.63;;;11.50;;
7669;SDS011;3877;42.562;27.636;2023-07-13T06:53:46;19.25;;;11.73;;
7669;SDS011;3877;42.562;27.636;2023-07-13T06:56:15;18.90;;;11.20;;
7669;SDS011;3877;42.562;27.636;2023-07-13T06:58:42;14.68;;;11.77;;
7669;SDS011;3877;42.562;27.636;2023-07-13T07:01:09;13.90;;;11.32;;
7669;SDS011;3877;42.562;27.636;2023-07-13T07:03:36;19.92;;;11.52;;
7669;SDS011;3877;42.562;27.636;2023-07-13T07:06:11;16.10;;;11.50;;
7669;SDS011;3877;42.562;27.636;2023-07-13T07:08:40;20.85;;;13.65;;
7669;SDS011;3877;42.562;27.636;2023-07-13T07:11:08;13.27;;;10.82;;
7669;SDS011;3877;42.562;27.636;2023-07-13T07:13:38;16.77;;;10.95;;
7669;SDS011;3877;42.562;27.636;2023-07-13T07:16:05;19.60;;;10.85;;
7669;SDS011;3877;42.562;27.636;2023-07-13T07:18:33;13.20;;;11.25;;
7669;SDS011;3877;42.562;27.636;2023-07-13T07:21:01;14.65;;;10.80;;
7669;SDS011;3877;42.562;27.636;2023-07-13T07:23:29;12.48;;;10.65;;
7669;SDS011;3877;42.562;27.636;2023-07-13T07:25:56;12.75;;;10.98;;
7669;SDS011;3877;42.562;27.636;2023-07-13T07:28:24;13.93;;;10.90;;
7669;SDS011;3877;42.562;27.636;2023-07-13T07:30:53;11.68;;;10.48;;
7669;SDS011;3877;42.562;27.636;2023-07-13T07:33:22;12.63;;;10.50;;
7669;SDS011;3877;42.562;27.636;2023-07-13T07:35:49;14.02;;;11.38;;
7669;SDS011;3877;42.562;27.636;2023-07-13T07:38:16;17.02;;;11.85;;
7669;SDS011;3877;42.562;27.636;2023-07-13T07:40:45;21.05;;;12.52;;
7669;SDS011;3877;42.562;27.636;2023-07-13T07:43:12;17.10;;;11.82;;
7669;SDS011;3877;42.562;27.636;2023-07-13T07:45:40;14.40;;;11.70;;
7669;SDS011;3877;42.562;27.636;2023-07-13T07:48:07;16.17;;;11.00;;
7669;SDS011;3877;42.562;27.636;2023-07-13T07:50:34;18.80;;;12.00;;
7669;SDS011;3877;42.562;27.636;2023-07-13T07:53:02;12.65;;;11.38;;
7669;SDS011;3877;42.562;27.636;2023-07-13T07:55:32;15.57;;;11.75;;
7669;SDS011;3877;42.562;27.636;2023-07-13T07:58:02;17.60;;;11.27;;
7669;SDS011;3877;42.562;27.636;2023-07-13T08:00:29;13.32;;;11.50;;
7669;SDS011;3877;42.562;27.636;2023-07-13T08:02:57;14.82;;;11.27;;
7669;SDS011;3877;42.562;27.636;2023-07-13T08:05:25;12.70;;;10.77;;
7669;SDS011;3877;42.562;27.636;2023-07-13T08:07:52;19.83;;;12.20;;
7669;SDS011;3877;42.562;27.636;2023-07-13T08:10:19;12.23;;;10.90;;
7669;SDS011;3877;42.562;27.636;2023-07-13T08:12:47;14.00;;;11.05;;
7669;SDS011;3877;42.562;27.636;2023-07-13T08:15:18;17.50;;;11.23;;
7669;SDS011;3877;42.562;27.636;2023-07-13T08:17:46;13.98;;;11.38;;
7669;SDS011;3877;42.562;27.636;2023-07-13T08:20:14;15.10;;;11.40;;
7669;SDS011;3877;42.562;27.636;2023-07-13T08:22:41;18.92;;;11.48;;
7669;SDS011;3877;42.562;27.636;2023-07-13T08:25:09;16.77;;;11.38;;
7669;SDS011;3877;42.562;27.636;2023-07-13T08:27:36;14.05;;;11.38;;
7669;SDS011;3877;42.562;27.636;2023-07-13T08:30:04;12.57;;;11.13;;
7669;SDS011;3877;42.562;27.636;2023-07-13T08:32:35;15.00;;;10.98;;
7669;SDS011;3877;42.562;27.636;2023-07-13T08:35:03;15.75;;;11.45;;
7669;SDS011;3877;42.562;27.636;2023-07-13T08:37:31;18.23;;;11.10;;
7669;SDS011;3877;42.562;27.636;2023-07-13T08:39:58;14.05;;;11.13;;
7669;SDS011;3877;42.562;27.636;2023-07-13T08:42:29;13.20;;;11.80;;
7669;SDS011;3877;42.562;27.636;2023-07-13T08:45:13;14.65;;;11.90;;
7669;SDS011;3877;42.562;27.636;2023-07-13T08:47:50;12.95;;;11.52;;
7669;SDS011;3877;42.562;27.636;2023-07-13T08:50:21;15.35;;;11.95;;
7669;SDS011;3877;42.562;27.636;2023-07-13T08:52:54;14.75;;;12.25;;
7669;SDS011;3877;42.562;27.636;2023-07-13T08:55:24;20.42;;;12.48;;
7669;SDS011;3877;42.562;27.636;2023-07-13T08:57:54;16.55;;;12.98;;
7669;SDS011;3877;42.562;27.636;2023-07-13T09:00:32;18.90;;;12.13;;
7669;SDS011;3877;42.562;27.636;2023-07-13T09:03:07;18.15;;;11.32;;
7669;SDS011;3877;42.562;27.636;2023-07-13T09:05:46;12.82;;;11.60;;
7669;SDS011;3877;42.562;27.636;2023-07-13T09:08:23;15.32;;;11.82;;
7669;SDS011;3877;42.562;27.636;2023-07-13T09:11:00;14.38;;;10.68;;
7669;SDS011;3877;42.562;27.636;2023-07-13T09:13:40;13.10;;;11.05;;
7669;SDS011;3877;42.562;27.636;2023-07-13T09:16:15;13.50;;;12.07;;
7669;SDS011;3877;42.562;27.636;2023-07-13T09:18:44;13.18;;;10.75;;
7669;SDS011;3877;42.562;27.636;2023-07-13T09:21:15;15.00;;;10.90;;
7669;SDS011;3877;42.562;27.636;2023-07-13T09:23:47;11.98;;;10.77;;
7669;SDS011;3877;42.562;27.636;2023-07-13T09:26:17;14.80;;;11.43;;
7669;SDS011;3877;42.562;27.636;2023-07-13T09:28:47;16.05;;;10.40;;
7669;SDS011;3877;42.562;27.636;2023-07-13T09:31:19;13.57;;;10.80;;
7669;SDS011;3877;42.562;27.636;2023-07-13T09:33:57;14.10;;;11.18;;
7669;SDS011;3877;42.562;27.636;2023-07-13T09:36:27;14.02;;;9.93;;
7669;SDS011;3877;42.562;27.636;2023-07-13T09:38:58;14.13;;;11.05;;
7669;SDS011;3877;42.562;27.636;2023-07-13T09:41:31;13.30;;;11.75;;
7669;SDS011;3877;42.562;27.636;2023-07-13T09:44:07;13.73;;;10.73;;
7669;SDS011;3877;42.562;27.636;2023-07-13T09:46:37;15.07;;;11.00;;
7669;SDS011;3877;42.562;27.636;2023-07-13T09:49:07;16.60;;;11.10;;
7669;SDS011;3877;42.562;27.636;2023-07-13T09:51:36;13.50;;;11.20;;
7669;SDS011;3877;42.562;27.636;2023-07-13T09:54:04;15.07;;;11.32;;
7669;SDS011;3877;42.562;27.636;2023-07-13T09:56:31;14.35;;;10.75;;
7669;SDS011;3877;42.562;27.636;2023-07-13T09:58:59;14.52;;;11.25;;
7669;SDS011;3877;42.562;27.636;2023-07-13T10:01:33;17.42;;;11.38;;
7669;SDS011;3877;42.562;27.636;2023-07-13T10:04:01;12.10;;;10.85;;
7669;SDS011;3877;42.562;27.636;2023-07-13T10:06:39;16.42;;;11.30;;
7669;SDS011;3877;42.562;27.636;2023-07-13T10:09:07;15.05;;;11.93;;
7669;SDS011;3877;42.562;27.636;2023-07-13T10:11:36;16.10;;;11.38;;
7669;SDS011;3877;42.562;27.636;2023-07-13T10:14:09;12.57;;;10.82;;
7669;SDS011;3877;42.562;27.636;2023-07-13T10:16:39;13.30;;;10.85;;
7669;SDS011;3877;42.562;27.636;2023-07-13T10:19:11;14.15;;;10.73;;
7669;SDS011;3877;42.562;27.636;2023-07-13T10:21:44;16.88;;;11.30;;
7669;SDS011;3877;42.562;27.636;2023-07-13T10:24:18;15.43;;;10.70;;
7669;SDS011;3877;42.562;27.636;2023-07-13T10:26:50;15.30;;;10.98;;
7669;SDS011;3877;42.562;27.636;2023-07-13T10:29:22;16.40;;;11.13;;
7669;SDS011;3877;42.562;27.636;2023-07-13T10:31:53;12.07;;;10.63;;
7669;SDS011;3877;42.562;27.636;2023-07-13T10:34:22;19.10;;;11.20;;
7669;SDS011;3877;42.562;27.636;2023-07-13T10:36:51;15.70;;;10.82;;
7669;SDS011;3877;42.562;27.636;2023-07-13T10:39:18;13.82;;;10.70;;
7669;SDS011;3877;42.562;27.636;2023-07-13T10:41:49;13.68;;;10.38;;
7669;SDS011;3877;42.562;27.636;2023-07-13T10:44:21;12.57;;;10.65;;
7669;SDS011;3877;42.562;27.636;2023-07-13T10:46:57;14.98;;;10.43;;
7669;SDS011;3877;42.562;27.636;2023-07-13T10:49:27;19.00;;;12.52;;
7669;SDS011;3877;42.562;27.636;2023-07-13T10:51:58;18.20;;;12.98;;
7669;SDS011;3877;42.562;27.636;2023-07-13T10:54:30;16.88;;;12.77;;
7669;SDS011;3877;42.562;27.636;2023-07-13T10:57:10;16.02;;;11.88;;
7669;SDS011;3877;42.562;27.636;2023-07-13T10:59:43;13.00;;;11.43;;
7669;SDS011;3877;42.562;27.636;2023-07-13T11:02:15;17.38;;;11.52;;
7669;SDS011;3877;42.562;27.636;2023-07-13T11:04:51;15.50;;;11.88;;
7669;SDS011;3877;42.562;27.636;2023-07-13T11:07:23;15.43;;;11.68;;
7669;SDS011;3877;42.562;27.636;2023-07-13T11:09:53;16.40;;;11.15;;
7669;SDS011;3877;42.562;27.636;2023-07-13T11:12:48;13.00;;;11.40;;
7669;SDS011;3877;42.562;27.636;2023-07-13T11:15:27;13.88;;;11.13;;
7669;SDS011;3877;42.562;27.636;2023-07-13T11:18:00;20.08;;;12.25;;
7669;SDS011;3877;42.562;27.636;2023-07-13T11:20:34;12.75;;;11.45;;
7669;SDS011;3877;42.562;27.636;2023-07-13T11:25:58;15.60;;;12.05;;
7669;SDS011;3877;42.562;27.636;2023-07-13T11:28:27;16.73;;;12.05;;
7669;SDS011;3877;42.562;27.636;2023-07-13T11:33:51;18.48;;;12.05;;
7669;SDS011;3877;42.562;27.636;2023-07-13T11:36:21;17.08;;;11.68;;
7669;SDS011;3877;42.562;27.636;2023-07-13T11:38:57;14.15;;;11.95;;
7669;SDS011;3877;42.562;27.636;2023-07-13T11:41:27;14.73;;;12.02;;
7669;SDS011;3877;42.562;27.636;2023-07-13T11:44:02;17.60;;;12.60;;
7669;SDS011;3877;42.562;27.636;2023-07-13T11:46:37;18.98;;;12.75;;
7669;SDS011;3877;42.562;27.636;2023-07-13T11:49:04;16.40;;;12.55;;
7669;SDS011;3877;42.562;27.636;2023-07-13T11:51:33;19.65;;;16.92;;
7669;SDS011;3877;42.562;27.636;2023-07-13T11:54:15;15.85;;;12.38;;
7669;SDS011;3877;42.562;27.636;2023-07-13T11:56:49;17.10;;;12.27;;
7669;SDS011;3877;42.562;27.636;2023-07-13T11:59:17;16.55;;;13.50;;
7669;SDS011;3877;42.562;27.636;2023-07-13T12:01:48;14.50;;;13.00;;
7669;SDS011;3877;42.562;27.636;2023-07-13T12:04:20;18.77;;;13.38;;
7669;SDS011;3877;42.562;27.636;2023-07-13T12:06:56;18.50;;;13.38;;
7669;SDS011;3877;42.562;27.636;2023-07-13T12:09:33;19.73;;;13.43;;
7669;SDS011;3877;42.562;27.636;2023-07-13T12:12:02;19.38;;;13.57;;
7669;SDS011;3877;42.562;27.636;2023-07-13T12:14:33;16.52;;;13.30;;
7669;SDS011;3877;42.562;27.636;2023-07-13T12:17:00;19.83;;;13.48;;
7669;SDS011;3877;42.562;27.636;2023-07-13T12:19:29;23.00;;;16.52;;
7669;SDS011;3877;42.562;27.636;2023-07-13T12:21:57;19.63;;;13.60;;
7669;SDS011;3877;42.562;27.636;2023-07-13T12:24:25;17.70;;;13.27;;
7669;SDS011;3877;42.562;27.636;2023-07-13T12:26:59;22.40;;;13.07;;
7669;SDS011;3877;42.562;27.636;2023-07-13T12:29:29;15.93;;;12.85;;
7669;SDS011;3877;42.562;27.636;2023-07-13T12:31:56;15.82;;;12.45;;
7669;SDS011;3877;42.562;27.636;2023-07-13T12:34:24;17.15;;;12.70;;
7669;SDS011;3877;42.562;27.636;2023-07-13T12:36:54;17.38;;;12.68;;
7669;SDS011;3877;42.562;27.636;2023-07-13T12:39:23;19.95;;;12.90;;
7669;SDS011;3877;42.562;27.636;2023-07-13T12:42:09;16.10;;;12.50;;
7669;SDS011;3877;42.562;27.636;2023-07-13T12:44:45;16.58;;;12.77;;
7669;SDS011;3877;42.562;27.636;2023-07-13T12:47:14;16.75;;;12.48;;
7669;SDS011;3877;42.562;27.636;2023-07-13T12:49:43;20.50;;;12.57;;
7669;SDS011;3877;42.562;27.636;2023-07-13T12:52:16;14.60;;;11.95;;
7669;SDS011;3877;42.562;27.636;2023-07-13T12:54:53;18.60;;;12.73;;
7669;SDS011;3877;42.562;27.636;2023-07-13T12:57:23;19.65;;;12.90;;
7669;SDS011;3877;42.562;27.636;2023-07-13T12:59:52;16.77;;;13.25;;
7669;SDS011;3877;42.562;27.636;2023-07-13T13:02:22;16.63;;;13.68;;
7669;SDS011;3877;42.562;27.636;2023-07-13T13:04:56;18.95;;;14.60;;
7669;SDS011;3877;42.562;27.636;2023-07-13T13:07:24;17.80;;;14.43;;
7669;SDS011;3877;42.562;27.636;2023-07-13T13:09:52;18.52;;;14.27;;
7669;SDS011;3877;42.562;27.636;2023-07-13T13:12:20;20.80;;;15.30;;
7669;SDS011;3877;42.562;27.636;2023-07-13T13:14:48;19.42;;;15.70;;
7669;SDS011;3877;42.562;27.636;2023-07-13T13:17:18;21.02;;;16.50;;
7669;SDS011;3877;42.562;27.636;2023-07-13T13:19:49;21.58;;;16.98;;
7669;SDS011;3877;42.562;27.636;2023-07-13T13:22:18;20.25;;;17.30;;
7669;SDS011;3877;42.562;27.636;2023-07-13T13:24:45;18.65;;;16.10;;
7669;SDS011;3877;42.562;27.636;2023-07-13T13:27:14;19.08;;;16.65;;
7669;SDS011;3877;42.562;27.636;2023-07-13T13:29:43;18.55;;;16.27;;
7669;SDS011;3877;42.562;27.636;2023-07-13T13:32:13;20.38;;;18.27;;
7669;SDS011;3877;42.562;27.636;2023-07-13T13:34:41;24.13;;;18.77;;
7669;SDS011;3877;42.562;27.636;2023-07-13T13:37:11;22.50;;;17.65;;
7669;SDS011;3877;42.562;27.636;2023-07-13T13:39:44;19.67;;;17.50;;
7669;SDS011;3877;42.562;27.636;2023-07-13T13:42:12;23.75;;;17.92;;
7669;SDS011;3877;42.562;27.636;2023-07-13T13:44:40;21.80;;;17.35;;
7669;SDS011;3877;42.562;27.636;2023-07-13T13:47:16;20.15;;;16.67;;
7669;SDS011;3877;42.562;27.636;2023-07-13T13:49:58;21.58;;;17.63;;
7669;SDS011;3877;42.562;27.636;2023-07-13T13:52:26;21.13;;;16.83;;
7669;SDS011;3877;42.562;27.636;2023-07-13T13:54:53;22.35;;;18.60;;
7669;SDS011;3877;42.562;27.636;2023-07-13T13:57:21;23.92;;;18.90;;
7669;SDS011;3877;42.562;27.636;2023-07-13T13:59:51;26.15;;;19.08;;
7669;SDS011;3877;42.562;27.636;2023-07-13T14:02:26;22.20;;;19.08;;
7669;SDS011;3877;42.562;27.636;2023-07-13T14:04:56;25.17;;;18.77;;
7669;SDS011;3877;42.562;27.636;2023-07-13T14:07:26;25.48;;;19.27;;
7669;SDS011;3877;42.562;27.636;2023-07-13T14:09:55;24.55;;;18.90;;
7669;SDS011;3877;42.562;27.636;2023-07-13T14:12:25;23.25;;;18.35;;
7669;SDS011;3877;42.562;27.636;2023-07-13T14:14:54;22.60;;;18.83;;
7669;SDS011;3877;42.562;27.636;2023-07-13T14:17:22;25.35;;;19.48;;
7669;SDS011;3877;42.562;27.636;2023-07-13T14:19:53;27.05;;;18.83;;
7669;SDS011;3877;42.562;27.636;2023-07-13T14:22:23;25.55;;;19.13;;
7669;SDS011;3877;42.562;27.636;2023-07-13T14:24:51;25.90;;;20.45;;
7669;SDS011;3877;42.562;27.636;2023-07-13T14:27:20;24.40;;;20.85;;
7669;SDS011;3877;42.562;27.636;2023-07-13T14:29:47;27.40;;;21.05;;
7669;SDS011;3877;42.562;27.636;2023-07-13T14:32:15;30.55;;;21.08;;
7669;SDS011;3877;42.562;27.636;2023-07-13T14:34:44;26.85;;;21.50;;
7669;SDS011;3877;42.562;27.636;2023-07-13T14:37:12;28.02;;;22.98;;
7669;SDS011;3877;42.562;27.636;2023-07-13T14:39:42;31.58;;;23.52;;
7669;SDS011;3877;42.562;27.636;2023-07-13T14:42:23;27.92;;;23.27;;
7669;SDS011;3877;42.562;27.636;2023-07-13T14:44:52;27.10;;;24.17;;
7669;SDS011;3877;42.562;27.636;2023-07-13T14:47:20;35.15;;;24.98;;
7669;SDS011;3877;42.562;27.636;2023-07-13T14:49:49;34.22;;;23.05;;
7669;SDS011;3877;42.562;27.636;2023-07-13T14:52:17;31.70;;;23.15;;
7669;SDS011;3877;42.562;27.636;2023-07-13T14:54:47;33.22;;;25.45;;
7669;SDS011;3877;42.562;27.636;2023-07-13T14:57:15;28.15;;;25.00;;